Alexandria Borg El Arab, Egypt

11:27 AM EET on October 26, 2014 (GMT +0200)
Borg El Arab International | Change Station
CLOSE
Current Station
Airport
Location: Alexandria Borg El Arab,
Elevation: 174 ft
Nearby Weather Stations

Elev 174 ft 30.92 °N, 29.70 °E | Updated 27 minutes ago

Clear
Clear
81 °F
Feels Like 82 °F
N
0
Wind Variable Wind from North

Today
High -- | Low -- °F
--% Chance of Precip.
Yesterday
High -- | Low -- °F
Precip. -- in
6:11 AM 5:18 PM
Waxing Crescent, 7% visible
Pressure 30.01 in
Visibility -9999.0 miles
Clouds
Heat Index 82 °F
Dew Point 63 °F
Humidity 54%
Rainfall 0.00 in
Snow Depth Not available.
UV Not available.
Pollen Not available.
Air Quality Not available.
Flu Activity Not available.
METAR HEBA 260900Z 00000KT CAVOK 27/17 Q1016 NOSIG

More Conditions Fewer Conditions

Pressure 30.01 in
Visibility -9999.0 miles
Clouds
Heat Index 82 °F
Dew Point 63 °F
Humidity 54%
Rainfall 0.00 in
Snow Depth Not available.
UV Not available.
Pollen Not available.
Air Quality Not available.
Flu Activity Not available.
METAR HEBA 260900Z 00000KT CAVOK 27/17 Q1016 NOSIG

More Conditions Fewer Conditions

10-Day Weather Forecast

Almanac

Astronomy

Oct. 26, 2014 Rise Set
Actual Time 6:11 AM EET 5:18 PM EET
Civil Twilight 5:46 AM EET 5:43 PM EET
Nautical Twilight 5:18 AM EET 6:11 PM EET
Astronomical Twilight 4:50 AM EET 6:39 PM EET
Moon 8:23 AM EET 7:20 PM EET
Length of Visible Light 11h 56m
Length of Day
11h 07m
Tomorrow will be 1m 42s shorter.
Waxing Crescent, 7% of the Moon is Illuminated
Today
Waxing Crescent
Oct 30
First Quarter
Nov 6
Full
Nov 14
Last Quarter
Nov 22
New

Yesterday's Extremes

Country Highs Country Lows

Community

WunderPhotos

Upload Photos

1,765,130 photos uploaded!

Nearby

Snow Depth

Not available.

Earthquake Activity

City Distance Mag. Time & Date
No recent earthquake activity has been reported nearby.
Minimum magnitude displayed is 2.5.

Coastal Water Temperatures

Place Temperature
No Stations Reporting

Nearby Weather Stations